CheckWX is a tool to help pilots better visualize weather data.  It is not intended as a substitute for an official pre-flight weather briefing.

19:04:30 UTC

AGGH METAR
Honiara International Airport
Honiara, Solomon Islands
Current

1 hour ago

AGGH 191800Z 27006KT 9999 FEW015 SCT030 25/23 Q1005
Observed
Feb-19 @ 18:00 UTC
Wind
  • 270° at 6 KTS
Visibility
10,000+ meters
Flight Rules
VFR
Cloud Levels
  • Few at 1,500' AGL
  • Scattered at 3,000' AGL
Temperature
25°C / 77°F
Dewpoint
23°C / 73°F
Humidity
89%
Altimeter
29.68" Hg
Pressure
1004.92 hPa
Previous

2 hours ago

AGGH 191700Z 25004KT 9999 HZ FEW015 SCT300 24/22 Q1005
Observed
Feb-19 @ 17:00 UTC
Wind
  • 250° at 4 KTS
Visibility
10,000+ meters
Flight Rules
VFR
Conditions
Haze
Cloud Levels
  • Few at 1,500' AGL
  • Scattered at 30,000' AGL
Temperature
24°C / 75°F
Dewpoint
22°C / 72°F
Humidity
89%
Altimeter
29.68" Hg
Pressure
1004.92 hPa
Previous

3 hours ago

AGGH 191600Z 29005KT 9999 HZ FEW015 SCT300 25/23 Q1005
Observed
Feb-19 @ 16:00 UTC
Wind
  • 290° at 5 KTS
Visibility
10,000+ meters
Flight Rules
VFR
Conditions
Haze
Cloud Levels
  • Few at 1,500' AGL
  • Scattered at 30,000' AGL
Temperature
25°C / 77°F
Dewpoint
23°C / 73°F
Humidity
89%
Altimeter
29.68" Hg
Pressure
1004.92 hPa